createdAt,value
2022-08-26T00:02:12.688Z,42.87
2022-08-26T00:04:40.917Z,42.60
2022-08-26T00:07:09.052Z,42.12
2022-08-26T00:09:40.123Z,41.59
2022-08-26T00:12:12.270Z,41.04
2022-08-26T00:14:40.801Z,41.27
2022-08-26T00:17:09.573Z,41.44
2022-08-26T00:19:37.624Z,42.04
2022-08-26T00:22:06.087Z,42.41
2022-08-26T00:24:33.916Z,42.43
2022-08-26T00:27:01.659Z,42.91
2022-08-26T00:29:30.536Z,42.76
2022-08-26T00:32:02.912Z,43.18
2022-08-26T00:34:32.330Z,43.32
2022-08-26T00:37:00.032Z,42.87
2022-08-26T00:39:27.651Z,42.30
2022-08-26T00:41:55.670Z,42.62
2022-08-26T00:44:23.654Z,42.76
2022-08-26T00:46:55.320Z,43.11
2022-08-26T00:49:42.209Z,43.07
2022-08-26T00:52:15.529Z,42.73
2022-08-26T00:55:04.564Z,42.98
2022-08-26T00:57:34.428Z,43.73
2022-08-26T01:00:12.108Z,44.19
2022-08-26T01:02:46.829Z,44.76
2022-08-26T01:05:16.116Z,44.37
2022-08-26T01:07:45.079Z,44.72
2022-08-26T01:10:19.398Z,45.06
2022-08-26T01:12:57.176Z,45.10
2022-08-26T01:15:34.419Z,44.52
2022-08-26T01:18:06.350Z,45.12
2022-08-26T01:20:58.388Z,45.41
2022-08-26T01:23:38.222Z,45.24
2022-08-26T01:26:19.795Z,45.59
2022-08-26T01:28:51.534Z,45.75
2022-08-26T01:31:25.040Z,45.96
2022-08-26T01:34:05.756Z,45.85
2022-08-26T01:36:33.818Z,46.01
2022-08-26T01:39:03.204Z,46.47
2022-08-26T01:41:35.176Z,46.75
2022-08-26T01:44:05.252Z,46.48
2022-08-26T01:46:34.240Z,45.62
2022-08-26T01:49:06.772Z,45.05
2022-08-26T01:51:38.438Z,45.84
2022-08-26T01:54:11.941Z,46.38
2022-08-26T01:56:40.368Z,46.27
2022-08-26T01:59:12.154Z,46.76
2022-08-26T02:01:40.148Z,46.75
2022-08-26T02:04:25.451Z,47.35
2022-08-26T02:06:56.963Z,47.20
2022-08-26T02:09:27.245Z,47.33
2022-08-26T02:11:55.549Z,46.88
2022-08-26T02:14:28.408Z,47.08
2022-08-26T02:16:56.924Z,47.44
2022-08-26T02:19:31.325Z,47.26
2022-08-26T02:22:03.579Z,47.49
2022-08-26T02:24:50.877Z,46.97
2022-08-26T02:27:22.397Z,47.01
2022-08-26T02:29:57.283Z,47.17
2022-08-26T02:32:25.587Z,46.90
2022-08-26T02:34:54.855Z,47.08
2022-08-26T02:37:23.059Z,46.88
2022-08-26T02:39:50.960Z,46.88
2022-08-26T02:42:19.877Z,47.21
2022-08-26T02:44:47.865Z,47.50
2022-08-26T02:47:16.495Z,47.54
2022-08-26T02:49:44.915Z,47.60
2022-08-26T02:52:15.342Z,47.64
2022-08-26T02:54:43.348Z,47.47
2022-08-26T02:57:13.149Z,47.70
2022-08-26T02:59:41.731Z,47.30
2022-08-26T03:02:11.067Z,46.78
2022-08-26T03:04:40.588Z,46.75
2022-08-26T03:07:25.616Z,46.62
2022-08-26T03:09:53.285Z,47.06
2022-08-26T03:12:21.288Z,47.17
2022-08-26T03:14:49.098Z,47.53
2022-08-26T03:17:18.312Z,47.98
2022-08-26T03:19:46.117Z,47.61
2022-08-26T03:22:14.648Z,47.98
2022-08-26T03:24:44.422Z,47.73
2022-08-26T03:27:14.468Z,48.77
2022-08-26T03:30:00.618Z,47.76
2022-08-26T03:32:29.257Z,48.27
2022-08-26T03:34:58.011Z,47.94
2022-08-26T03:37:25.965Z,48.34
2022-08-26T03:39:53.924Z,48.27
2022-08-26T03:42:22.265Z,47.83
2022-08-26T03:44:50.204Z,48.47
2022-08-26T03:47:18.284Z,48.82
2022-08-26T03:49:46.017Z,48.38
2022-08-26T03:52:14.129Z,48.43
2022-08-26T03:54:41.772Z,48.30
2022-08-26T03:57:11.097Z,48.92
2022-08-26T03:59:38.640Z,49.66
2022-08-26T04:02:11.565Z,49.97
2022-08-26T04:04:40.480Z,49.42
2022-08-26T04:07:08.811Z,50.61
2022-08-26T04:09:36.744Z,49.93
2022-08-26T04:12:05.827Z,50.12
2022-08-26T04:14:35.423Z,50.12
2022-08-26T04:17:06.039Z,49.24
2022-08-26T04:19:34.298Z,50.07
2022-08-26T04:22:02.880Z,49.26
2022-08-26T04:24:31.107Z,50.08
2022-08-26T04:26:59.039Z,50.78
2022-08-26T04:29:27.643Z,50.90
2022-08-26T04:31:56.503Z,50.17
2022-08-26T04:34:28.496Z,51.11
2022-08-26T04:36:57.818Z,50.20
2022-08-26T04:39:25.596Z,49.99
2022-08-26T04:41:55.688Z,49.49
2022-08-26T04:44:28.297Z,51.67
2022-08-26T04:46:56.906Z,50.50
2022-08-26T04:49:26.141Z,49.97
2022-08-26T04:51:55.302Z,49.59
2022-08-26T04:54:23.660Z,49.69
2022-08-26T04:56:53.331Z,49.49
2022-08-26T04:59:21.958Z,49.71
2022-08-26T05:01:52.404Z,49.34
2022-08-26T05:04:21.113Z,49.09
2022-08-26T05:06:50.008Z,48.44
2022-08-26T05:09:20.929Z,48.07
2022-08-26T05:11:52.057Z,48.42
2022-08-26T05:14:23.323Z,48.04
2022-08-26T05:16:52.671Z,49.04
2022-08-26T05:19:21.093Z,50.52
2022-08-26T05:21:49.542Z,50.29
2022-08-26T05:24:18.145Z,48.75
2022-08-26T05:26:46.861Z,49.53
2022-08-26T05:29:14.732Z,49.41
2022-08-26T05:31:43.179Z,48.94
2022-08-26T05:34:10.896Z,48.95
2022-08-26T05:36:39.204Z,48.80
2022-08-26T05:39:07.716Z,48.54
2022-08-26T05:41:41.154Z,46.21
2022-08-26T05:44:11.435Z,46.74
2022-08-26T05:46:41.251Z,45.94
2022-08-26T05:49:12.599Z,46.75
2022-08-26T05:51:47.743Z,45.72
2022-08-26T05:54:21.886Z,45.49
2022-08-26T05:56:53.677Z,45.09
2022-08-26T05:59:24.060Z,45.58
2022-08-26T06:01:54.977Z,45.02
2022-08-26T06:04:27.534Z,44.41
2022-08-26T06:06:56.263Z,43.79
2022-08-26T06:09:24.923Z,43.38
2022-08-26T06:11:52.843Z,42.57
2022-08-26T06:14:21.341Z,42.60
2022-08-26T06:16:49.939Z,41.42
2022-08-26T06:19:17.813Z,41.32
2022-08-26T06:21:51.387Z,40.87
2022-08-26T06:24:41.108Z,40.04
2022-08-26T06:27:13.789Z,40.20
2022-08-26T06:29:42.804Z,40.80
2022-08-26T06:32:10.878Z,41.15
2022-08-26T06:34:39.318Z,40.15
2022-08-26T06:37:07.281Z,40.23
2022-08-26T06:39:35.112Z,39.94
2022-08-26T06:42:03.344Z,40.28
2022-08-26T06:44:35.222Z,40.81
2022-08-26T06:47:02.897Z,40.76
2022-08-26T06:49:30.466Z,40.10
2022-08-26T06:51:58.960Z,40.71
2022-08-26T06:54:28.472Z,40.73
2022-08-26T06:56:56.998Z,41.76
2022-08-26T06:59:25.794Z,41.35
2022-08-26T07:01:54.780Z,41.78
2022-08-26T07:04:24.603Z,41.15
2022-08-26T07:06:53.507Z,40.99
2022-08-26T07:09:24.837Z,41.30
2022-08-26T07:11:56.292Z,41.76
2022-08-26T07:14:26.096Z,41.07
2022-08-26T07:16:55.599Z,41.62
2022-08-26T07:19:30.104Z,40.59
2022-08-26T07:22:05.057Z,40.62
2022-08-26T07:24:35.552Z,40.47
2022-08-26T07:27:05.962Z,40.72
2022-08-26T07:29:34.676Z,38.68
2022-08-26T07:32:03.909Z,38.62
2022-08-26T07:34:35.198Z,38.02
2022-08-26T07:37:03.053Z,38.37
2022-08-26T07:39:32.794Z,38.07
2022-08-26T07:42:08.008Z,38.15
2022-08-26T07:44:37.896Z,38.73
2022-08-26T07:47:10.221Z,39.15
2022-08-26T07:49:58.209Z,39.38
2022-08-26T07:52:29.492Z,39.65
2022-08-26T07:54:59.058Z,39.04
2022-08-26T07:57:27.264Z,38.88
2022-08-26T07:59:55.992Z,39.08
2022-08-26T08:02:24.929Z,38.54
2022-08-26T08:04:53.608Z,38.00
2022-08-26T08:07:38.376Z,35.53
2022-08-26T08:10:13.589Z,33.66
2022-08-26T08:12:43.366Z,33.26
2022-08-26T08:15:13.520Z,32.67
2022-08-26T08:17:46.015Z,32.82
2022-08-26T08:20:14.713Z,33.36
2022-08-26T08:22:43.123Z,33.10
2022-08-26T08:25:12.141Z,33.28
2022-08-26T08:27:42.830Z,33.42
2022-08-26T08:30:13.837Z,34.03
2022-08-26T08:32:43.691Z,34.29
2022-08-26T08:35:14.737Z,34.11
2022-08-26T08:37:44.371Z,33.80
2022-08-26T08:40:18.915Z,34.41
2022-08-26T08:43:01.592Z,34.68
2022-08-26T08:45:38.533Z,34.87
2022-08-26T08:48:13.939Z,34.72
2022-08-26T08:50:47.594Z,33.91
2022-08-26T08:53:30.604Z,34.38
2022-08-26T08:56:08.161Z,33.37
2022-08-26T08:58:46.192Z,32.79
2022-08-26T09:01:43.691Z,32.53
2022-08-26T09:04:18.716Z,32.48
2022-08-26T09:06:48.833Z,32.08
2022-08-26T09:09:38.671Z,31.83
2022-08-26T09:12:12.875Z,32.01
2022-08-26T09:14:41.192Z,31.72
2022-08-26T09:17:21.742Z,31.86
2022-08-26T09:19:59.217Z,31.62
2022-08-26T09:22:36.573Z,31.99
2022-08-26T09:25:11.089Z,32.33
2022-08-26T09:27:50.435Z,32.54
2022-08-26T09:30:26.636Z,32.28
2022-08-26T09:33:17.103Z,32.41
2022-08-26T09:35:48.776Z,32.33
2022-08-26T09:38:33.010Z,32.44
2022-08-26T09:41:05.185Z,32.48
2022-08-26T09:43:33.111Z,32.75
2022-08-26T09:46:27.889Z,33.27
2022-08-26T09:48:56.288Z,33.22
2022-08-26T09:51:32.183Z,33.53
2022-08-26T09:54:02.803Z,32.85
2022-08-26T09:56:38.133Z,32.99
2022-08-26T09:59:11.140Z,32.26
2022-08-26T10:01:45.031Z,32.40
2022-08-26T10:04:26.782Z,32.25
2022-08-26T10:07:03.948Z,32.28
2022-08-26T10:09:38.552Z,32.13
2022-08-26T10:12:19.431Z,32.59
2022-08-26T10:14:55.282Z,33.10
2022-08-26T10:17:36.272Z,33.60
2022-08-26T10:20:23.394Z,33.70
2022-08-26T10:22:55.477Z,33.47
2022-08-26T10:25:43.899Z,32.53
2022-08-26T10:28:40.868Z,32.90
2022-08-26T10:31:40.260Z,33.60
2022-08-26T10:34:12.501Z,33.62
2022-08-26T10:37:14.655Z,34.21
2022-08-26T10:40:07.750Z,33.73
2022-08-26T10:43:11.495Z,34.32
2022-08-26T10:45:47.895Z,34.74
2022-08-26T10:48:35.858Z,35.00
2022-08-26T10:51:04.989Z,35.68
2022-08-26T10:53:59.084Z,36.19
2022-08-26T10:56:39.240Z,35.56
2022-08-26T10:59:13.198Z,36.45
2022-08-26T11:02:17.132Z,39.02
2022-08-26T11:04:56.224Z,39.62
2022-08-26T11:07:39.796Z,39.50
2022-08-26T11:10:09.429Z,39.81
2022-08-26T11:12:37.517Z,38.66
2022-08-26T11:15:24.546Z,39.55
2022-08-26T11:17:57.282Z,38.77
2022-08-26T11:20:33.987Z,38.29
2022-08-26T11:23:14.525Z,38.70
2022-08-26T11:26:10.089Z,39.21
2022-08-26T11:28:48.834Z,38.75
2022-08-26T11:31:19.363Z,39.25
2022-08-26T11:33:48.920Z,38.72
2022-08-26T11:36:39.770Z,37.94
2022-08-26T11:39:31.088Z,38.12
2022-08-26T11:42:41.616Z,38.18
2022-08-26T11:45:25.205Z,37.96
2022-08-26T11:47:54.957Z,37.18
2022-08-26T11:50:28.222Z,37.39
2022-08-26T11:53:06.405Z,37.13
2022-08-26T11:55:41.967Z,37.84
2022-08-26T11:58:13.106Z,37.63
2022-08-26T12:00:52.899Z,38.07
2022-08-26T12:03:25.421Z,37.14
2022-08-26T12:05:54.335Z,38.24
2022-08-26T12:08:28.102Z,37.91
2022-08-26T12:11:09.204Z,38.63
2022-08-26T12:13:39.179Z,38.38
2022-08-26T12:16:07.728Z,38.95
2022-08-26T12:18:38.651Z,37.94
2022-08-26T12:21:24.411Z,38.78
2022-08-26T12:23:56.392Z,39.00
2022-08-26T12:26:32.976Z,39.55
2022-08-26T12:29:26.730Z,39.39
2022-08-26T12:32:13.883Z,37.04
2022-08-26T12:34:43.252Z,37.64
2022-08-26T12:37:15.145Z,38.47
2022-08-26T12:39:45.095Z,38.30
2022-08-26T12:42:13.140Z,37.65
2022-08-26T12:45:01.453Z,38.39
2022-08-26T12:47:42.591Z,38.45
2022-08-26T12:50:26.892Z,38.01
2022-08-26T12:52:58.129Z,38.22
2022-08-26T12:55:31.762Z,37.68
2022-08-26T12:58:13.667Z,38.68
2022-08-26T13:00:46.715Z,37.84
2022-08-26T13:03:45.684Z,37.63
2022-08-26T13:06:23.640Z,37.95
2022-08-26T13:09:09.487Z,37.88
2022-08-26T13:11:39.868Z,38.78
2022-08-26T13:14:18.353Z,39.52
2022-08-26T13:16:53.175Z,39.33
2022-08-26T13:19:23.830Z,39.42
2022-08-26T13:21:54.662Z,38.52
2022-08-26T13:24:36.268Z,38.68
2022-08-26T13:27:05.463Z,38.89
2022-08-26T13:29:33.279Z,38.96
2022-08-26T13:32:01.668Z,39.25
2022-08-26T13:34:30.744Z,38.98
2022-08-26T13:36:59.357Z,40.27
2022-08-26T13:39:27.486Z,40.43
2022-08-26T13:41:55.313Z,39.69
2022-08-26T13:44:23.262Z,38.99
2022-08-26T13:46:51.073Z,38.52
2022-08-26T13:49:18.871Z,40.12
2022-08-26T13:51:46.681Z,39.80
2022-08-26T13:54:14.550Z,41.02
2022-08-26T13:56:42.355Z,40.92
2022-08-26T13:59:10.809Z,41.36
2022-08-26T14:01:40.212Z,40.81
2022-08-26T14:04:08.526Z,40.27
2022-08-26T14:06:37.478Z,41.78
2022-08-26T14:09:05.598Z,41.54
2022-08-26T14:11:50.651Z,42.01
2022-08-26T14:14:22.324Z,41.95
2022-08-26T14:16:59.927Z,42.70
2022-08-26T14:19:30.215Z,43.47
2022-08-26T14:22:01.023Z,43.14
2022-08-26T14:24:29.598Z,43.05
2022-08-26T14:26:57.320Z,42.93
2022-08-26T14:29:24.966Z,42.88
2022-08-26T14:31:52.919Z,43.36
2022-08-26T14:34:20.889Z,44.40
2022-08-26T14:36:48.711Z,44.24
2022-08-26T14:39:16.412Z,44.52
2022-08-26T14:41:54.348Z,45.03
2022-08-26T14:44:28.340Z,45.05
2022-08-26T14:46:57.260Z,44.99
2022-08-26T14:49:27.350Z,45.18
2022-08-26T14:51:55.643Z,44.92
2022-08-26T14:54:23.385Z,44.98
2022-08-26T14:56:54.493Z,44.97
2022-08-26T14:59:25.623Z,44.67
2022-08-26T15:01:54.877Z,45.01
2022-08-26T15:04:23.233Z,46.32
2022-08-26T15:06:52.949Z,46.03
2022-08-26T15:09:21.515Z,46.01
2022-08-26T15:11:50.625Z,45.48
2022-08-26T15:14:19.897Z,45.50
2022-08-26T15:16:51.311Z,45.78
2022-08-26T15:19:20.119Z,46.66
2022-08-26T15:21:48.135Z,46.42
2022-08-26T15:24:20.095Z,46.73
2022-08-26T15:26:48.563Z,47.82
2022-08-26T15:29:17.012Z,48.22
2022-08-26T15:31:45.371Z,48.50
2022-08-26T15:34:16.796Z,48.95
2022-08-26T15:36:47.071Z,49.68
2022-08-26T15:39:16.499Z,49.17
2022-08-26T15:41:44.614Z,49.51
2022-08-26T15:44:14.288Z,50.13
2022-08-26T15:46:42.289Z,49.76
2022-08-26T15:49:16.929Z,50.47
2022-08-26T15:51:48.175Z,50.82
2022-08-26T15:54:19.690Z,51.72
2022-08-26T15:56:50.638Z,52.26
2022-08-26T15:59:19.757Z,52.39
2022-08-26T16:01:48.337Z,52.66
2022-08-26T16:04:16.191Z,52.77
2022-08-26T16:06:47.442Z,52.89
2022-08-26T16:09:15.124Z,52.17
2022-08-26T16:11:42.988Z,53.50
2022-08-26T16:14:11.074Z,53.06
2022-08-26T16:16:40.276Z,51.95
2022-08-26T16:19:08.462Z,51.51
2022-08-26T16:21:36.271Z,51.53
2022-08-26T16:24:05.246Z,51.40
2022-08-26T16:26:35.715Z,51.19
2022-08-26T16:29:08.263Z,51.61
2022-08-26T16:31:38.089Z,52.06
2022-08-26T16:34:06.741Z,52.58
2022-08-26T16:36:37.013Z,51.60
2022-08-26T16:39:06.167Z,51.12
2022-08-26T16:41:34.167Z,50.91
2022-08-26T16:44:01.971Z,51.28
2022-08-26T16:46:30.017Z,50.04
2022-08-26T16:48:58.741Z,49.65
2022-08-26T16:51:28.148Z,49.49
2022-08-26T16:53:57.567Z,50.27
2022-08-26T16:56:34.161Z,49.57
2022-08-26T16:59:05.227Z,49.86
2022-08-26T17:01:33.596Z,49.76
2022-08-26T17:04:01.310Z,49.54
2022-08-26T17:06:29.870Z,49.23
2022-08-26T17:08:57.727Z,49.23
2022-08-26T17:11:25.392Z,49.65
2022-08-26T17:13:53.055Z,49.73
2022-08-26T17:16:25.871Z,48.55
2022-08-26T17:18:58.769Z,48.97
2022-08-26T17:21:28.078Z,49.01
2022-08-26T17:23:56.574Z,50.01
2022-08-26T17:26:24.452Z,50.60
2022-08-26T17:28:52.967Z,50.38
2022-08-26T17:31:22.016Z,50.68
2022-08-26T17:33:53.974Z,50.24
2022-08-26T17:36:28.015Z,50.07
2022-08-26T17:38:57.798Z,49.62
2022-08-26T17:41:26.616Z,48.73
2022-08-26T17:43:54.673Z,48.73
2022-08-26T17:46:22.350Z,49.36
2022-08-26T17:48:50.093Z,49.75
2022-08-26T17:51:19.417Z,51.35
2022-08-26T17:53:48.703Z,52.32
2022-08-26T17:56:23.894Z,52.84
2022-08-26T17:58:53.203Z,53.11
2022-08-26T18:01:22.327Z,52.75
2022-08-26T18:03:50.278Z,53.29
2022-08-26T18:06:18.517Z,53.90
2022-08-26T18:08:46.252Z,54.29
2022-08-26T18:11:17.375Z,54.04
2022-08-26T18:13:47.616Z,53.47
2022-08-26T18:16:17.698Z,53.91
2022-08-26T18:18:46.741Z,53.74
2022-08-26T18:21:17.880Z,53.39
2022-08-26T18:23:46.729Z,53.20
2022-08-26T18:26:24.558Z,52.28
2022-08-26T18:28:53.146Z,53.11
2022-08-26T18:31:20.899Z,53.59
2022-08-26T18:33:48.689Z,54.13
2022-08-26T18:36:26.220Z,53.86
2022-08-26T18:38:54.680Z,54.03
2022-08-26T18:41:24.796Z,54.34
2022-08-26T18:43:53.520Z,54.12
2022-08-26T18:46:25.154Z,54.05
2022-08-26T18:48:55.431Z,53.96
2022-08-26T18:51:26.466Z,54.13
2022-08-26T18:53:54.257Z,55.11
2022-08-26T18:56:22.540Z,53.65
2022-08-26T18:58:50.664Z,52.05
2022-08-26T19:01:20.935Z,51.96
2022-08-26T19:03:51.443Z,52.47
2022-08-26T19:06:21.158Z,52.82
2022-08-26T19:08:50.193Z,53.29
2022-08-26T19:11:31.624Z,53.90
2022-08-26T19:14:01.822Z,55.15
2022-08-26T19:16:31.133Z,57.37
2022-08-26T19:19:00.715Z,58.21
2022-08-26T19:21:29.022Z,59.11
2022-08-26T19:24:02.692Z,61.19
2022-08-26T19:26:31.043Z,64.49
2022-08-26T19:28:58.904Z,67.60
2022-08-26T19:31:27.276Z,69.91
2022-08-26T19:33:56.833Z,71.36
2022-08-26T19:36:25.483Z,72.37
2022-08-26T19:38:55.325Z,74.52
2022-08-26T19:41:37.113Z,75.97
2022-08-26T19:44:13.020Z,76.28
2022-08-26T19:46:41.825Z,74.72
2022-08-26T19:49:09.474Z,74.02
2022-08-26T19:51:38.560Z,73.58
2022-08-26T19:54:07.116Z,72.58
2022-08-26T19:56:35.124Z,70.00
2022-08-26T19:59:03.104Z,69.55
2022-08-26T20:01:31.076Z,69.17
2022-08-26T20:03:59.293Z,67.95
2022-08-26T20:06:27.048Z,69.53
2022-08-26T20:08:56.233Z,69.74
2022-08-26T20:11:24.848Z,68.13
2022-08-26T20:13:52.983Z,70.12
2022-08-26T20:16:20.736Z,70.72
2022-08-26T20:19:07.069Z,71.32
2022-08-26T20:21:38.271Z,67.93
2022-08-26T20:24:17.701Z,68.90
2022-08-26T20:26:45.745Z,69.86
2022-08-26T20:29:15.990Z,69.18
2022-08-26T20:31:44.866Z,69.04
2022-08-26T20:34:13.684Z,68.00
2022-08-26T20:36:42.438Z,69.66
2022-08-26T20:39:11.967Z,70.99
2022-08-26T20:41:39.808Z,70.89
2022-08-26T20:44:07.476Z,71.51
2022-08-26T20:46:37.627Z,69.41
2022-08-26T20:49:07.507Z,71.85
2022-08-26T20:51:37.528Z,70.71
2022-08-26T20:54:06.387Z,70.66
2022-08-26T20:56:35.617Z,71.23
2022-08-26T20:59:07.015Z,71.02
2022-08-26T21:01:39.878Z,71.17
2022-08-26T21:04:13.461Z,69.71
2022-08-26T21:06:43.803Z,71.72
2022-08-26T21:09:21.645Z,71.89
2022-08-26T21:11:52.144Z,69.46
2022-08-26T21:14:20.771Z,70.78
2022-08-26T21:16:49.083Z,69.04
2022-08-26T21:19:18.981Z,66.62
2022-08-26T21:21:48.325Z,69.27
2022-08-26T21:24:16.947Z,65.96
2022-08-26T21:26:45.089Z,65.47
2022-08-26T21:29:13.881Z,66.42
2022-08-26T21:31:46.055Z,67.89
2022-08-26T21:34:17.113Z,66.88
2022-08-26T21:36:48.415Z,67.27
2022-08-26T21:39:16.940Z,66.43
2022-08-26T21:41:46.217Z,67.28
2022-08-26T21:44:15.517Z,64.14
2022-08-26T21:46:44.571Z,65.46
2022-08-26T21:49:15.705Z,65.47
2022-08-26T21:51:47.652Z,64.64
2022-08-26T21:54:15.976Z,66.83
2022-08-26T21:56:46.838Z,66.56
2022-08-26T21:59:17.534Z,66.03
2022-08-26T22:01:46.120Z,66.27
2022-08-26T22:04:14.867Z,66.96
2022-08-26T22:06:50.436Z,66.18
2022-08-26T22:09:21.720Z,65.46
2022-08-26T22:11:50.087Z,64.87
2022-08-26T22:14:20.625Z,62.87
2022-08-26T22:16:50.791Z,62.66
2022-08-26T22:19:20.394Z,63.41
2022-08-26T22:21:50.295Z,61.07
2022-08-26T22:24:19.587Z,60.98
2022-08-26T22:26:48.914Z,59.86
2022-08-26T22:29:17.127Z,57.88
2022-08-26T22:31:46.052Z,58.03
2022-08-26T22:34:17.420Z,57.25
2022-08-26T22:36:47.712Z,55.74
2022-08-26T22:39:19.104Z,53.82
2022-08-26T22:41:48.849Z,53.82
2022-08-26T22:44:18.628Z,52.11
2022-08-26T22:46:48.015Z,50.23
2022-08-26T22:49:16.563Z,48.53
2022-08-26T22:51:46.180Z,48.68
2022-08-26T22:54:15.477Z,48.20
2022-08-26T22:56:45.156Z,47.63
2022-08-26T22:59:13.737Z,48.12
2022-08-26T23:01:43.462Z,47.74
2022-08-26T23:04:11.567Z,47.78
2022-08-26T23:06:43.337Z,49.51
2022-08-26T23:09:18.439Z,49.53
2022-08-26T23:11:48.631Z,49.81
2022-08-26T23:14:18.706Z,49.49
2022-08-26T23:16:47.747Z,50.14
2022-08-26T23:19:17.745Z,49.84
2022-08-26T23:21:46.180Z,49.83
2022-08-26T23:24:17.521Z,49.52
2022-08-26T23:26:45.679Z,50.04
2022-08-26T23:29:15.731Z,49.56
2022-08-26T23:31:43.788Z,50.34
2022-08-26T23:34:30.392Z,49.73
2022-08-26T23:36:59.435Z,50.98
2022-08-26T23:39:31.211Z,50.79
2022-08-26T23:42:01.785Z,50.18
2022-08-26T23:44:30.901Z,49.80
2022-08-26T23:46:59.156Z,50.38
2022-08-26T23:49:27.714Z,49.51
2022-08-26T23:52:13.964Z,49.73
2022-08-26T23:54:41.855Z,49.09
2022-08-26T23:57:10.608Z,48.17
2022-08-26T23:59:39.132Z,47.06
